Time;durP1;ratioP1;P1;durP2;ratioP2;P2;SDS_P1;SDS_P2;PMS_P1;PMS_P2;Temp;Humidity;BMP_temperature;BMP_pressure;BME280_temperature;BME280_humidity;BME280_pressure;Samples;Min_cycle;Max_cycle;Signal;HPM_P1;HPM_P2
2023/10/09 00:02:10;;;;;;;;;;;10.60;79.90;;;;;;4914740;28;20050;-82
2023/10/09 00:04:41;;;;;;;2.45;0.43;;;10.60;79.80;;;;;;4933619;28;19938;-84
2023/10/09 00:07:10;;;;;;;1.80;0.40;;;10.60;79.80;;;;;;4921875;28;20547;-84
2023/10/09 00:09:47;;;;;;;2.35;0.38;;;10.50;80.10;;;;;;4942106;28;20046;-82
2023/10/09 00:12:23;;;;;;;1.73;0.30;;;10.50;79.90;;;;;;4964035;28;20038;-85
2023/10/09 00:14:55;;;;;;;2.80;0.30;;;10.50;80.30;;;;;;4956376;28;20060;-85
2023/10/09 00:17:23;;;;;;;1.40;0.40;;;10.50;81.10;;;;;;4938203;28;20054;-83
2023/10/09 00:19:52;;;;;;;3.30;0.50;;;10.50;81.40;;;;;;4921054;28;20084;-82
2023/10/09 00:22:29;;;;;;;4.22;0.43;;;10.50;81.20;;;;;;4946461;28;20522;-83
2023/10/09 00:25:22;;;;;;;2.38;0.32;;;10.40;81.30;;;;;;4938716;28;20069;-82
2023/10/09 00:27:50;;;;;;;1.67;0.25;;;10.50;81.70;;;;;;4939163;28;20088;-83
2023/10/09 00:30:18;;;;;;;4.97;0.70;;;10.50;81.30;;;;;;4937870;28;20054;-81
2023/10/09 00:33:01;;;;;;;1.88;0.50;;;10.50;81.60;;;;;;4920841;28;20053;-81
2023/10/09 00:38:34;;;;;;;3.40;0.40;;;10.50;81.40;;;;;;4934333;28;20081;-84
2023/10/09 00:41:10;;;;;;;2.35;0.30;;;10.50;81.20;;;;;;4953701;28;20062;-83
2023/10/09 00:43:42;;;;;;;1.45;0.40;;;10.50;81.30;;;;;;4930345;28;20615;-82
2023/10/09 00:46:23;;;;;;;4.78;0.30;;;10.60;81.30;;;;;;4937322;28;20093;-83
2023/10/09 00:48:58;;;;;;;3.33;0.43;;;10.60;81.60;;;;;;4920311;28;20058;-82
2023/10/09 00:51:26;;;;;;;2.95;0.50;;;10.60;82.10;;;;;;4937192;28;20058;-83
2023/10/09 00:54:06;;;;;;;2.15;0.40;;;10.60;82.30;;;;;;4921820;28;20614;-84
2023/10/09 00:56:39;;;;;;;3.55;0.47;;;10.50;82.30;;;;;;4931509;28;20723;-83
2023/10/09 00:59:20;;;;;;;2.38;0.40;;;10.60;82.50;;;;;;4920647;28;20073;-83
2023/10/09 01:01:56;;;;;;;1.88;0.30;;;10.60;82.80;;;;;;4966995;28;20051;-82
2023/10/09 01:04:29;;;;;;;3.72;0.30;;;10.60;83.80;;;;;;4931005;28;20043;-82
2023/10/09 01:09:43;;;;;;;1.10;0.22;;;10.60;85.00;;;;;;4950425;28;20061;-82
2023/10/09 01:12:16;;;;;;;2.78;0.82;;;10.60;85.60;;;;;;4957539;28;20050;-81
2023/10/09 01:14:45;;;;;;;2.13;0.77;;;10.80;86.10;;;;;;4938869;28;20042;-80
2023/10/09 01:17:29;;;;;;;2.78;0.50;;;10.60;85.70;;;;;;4938291;28;22322;-81
2023/10/09 01:20:03;;;;;;;4.43;1.15;;;10.60;85.20;;;;;;4891491;28;1232130;-81
2023/10/09 01:22:30;;;;;;;1.40;0.30;;;10.60;85.30;;;;;;4937590;28;20058;-83
2023/10/09 01:24:57;;;;;;;2.42;0.30;;;10.60;85.10;;;;;;4939614;28;20046;-82
2023/10/09 01:27:32;;;;;;;2.28;0.63;;;10.60;85.00;;;;;;4947931;28;20078;-83
2023/10/09 01:30:00;;;;;;;1.83;0.35;;;10.60;84.70;;;;;;4934401;28;20715;-83
2023/10/09 01:32:27;;;;;;;3.03;0.38;;;10.60;84.50;;;;;;4953448;28;20046;-82
2023/10/09 01:34:57;;;;;;;3.10;0.60;;;10.60;84.50;;;;;;4948456;28;22475;-84
2023/10/09 01:37:30;;;;;;;1.52;0.28;;;10.60;84.30;;;;;;4970228;28;20046;-83
2023/10/09 01:40:01;;;;;;;1.80;0.50;;;10.60;84.70;;;;;;4949080;28;21895;-83
2023/10/09 01:45:03;;;;;;;2.47;0.60;;;10.60;85.40;;;;;;4956067;28;20062;-81
2023/10/09 01:47:31;;;;;;;2.72;0.57;;;10.60;85.90;;;;;;4964624;28;20064;-82
2023/10/09 01:50:04;;;;;;;1.50;0.40;;;10.60;86.40;;;;;;4940260;28;20046;-81
2023/10/09 01:52:35;;;;;;;2.45;0.55;;;10.50;86.60;;;;;;4942304;28;20176;-81
2023/10/09 01:55:27;;;;;;;3.83;0.50;;;10.60;86.90;;;;;;4934165;28;20054;-83
2023/10/09 01:57:50;;;;;;;2.97;1.15;;;10.60;86.90;;;;;;4957011;28;20105;-80
2023/10/09 02:00:23;;;;;;;2.20;0.50;;;10.60;87.00;;;;;;4921184;28;20046;-81
2023/10/09 02:02:50;;;;;;;;;;;10.60;86.90;;;;;;4933280;28;20062;-82
2023/10/09 02:07:51;;;;;;;1.98;0.38;;;10.60;87.40;;;;;;4956324;28;20058;-84
2023/10/09 02:12:57;;;;;;;3.17;0.50;;;10.60;87.40;;;;;;4938937;28;20058;-80
2023/10/09 02:29:35;;;;;;;3.63;0.50;;;10.60;86.30;;;;;;4958777;28;20050;-83
2023/10/09 02:31:46;;;;;;;1.58;0.40;;;10.60;86.00;;;;;;4932723;28;20653;-82
2023/10/09 02:34:17;;;;;;;3.30;0.40;;;10.60;85.80;;;;;;4941140;28;20050;-82
2023/10/09 02:36:49;;;;;;;2.13;0.45;;;10.60;86.00;;;;;;4967340;28;20042;-82
2023/10/09 02:39:26;;;;;;;2.65;0.70;;;10.70;85.80;;;;;;4943642;28;20058;-81
2023/10/09 02:44:46;;;;;;;2.97;1.05;;;10.70;85.80;;;;;;4935644;28;22080;-83
2023/10/09 02:47:20;;;;;;;1.42;0.40;;;10.70;85.80;;;;;;4921164;28;20117;-82
2023/10/09 02:49:48;;;;;;;2.20;0.50;;;10.60;85.90;;;;;;4939826;28;20081;-83
2023/10/09 02:52:19;;;;;;;2.90;0.50;;;10.60;86.10;;;;;;4923554;28;20042;-84
2023/10/09 02:54:47;;;;;;;2.22;0.40;;;10.70;86.40;;;;;;4922591;28;20495;-83
2023/10/09 02:57:23;;;;;;;1.23;0.30;;;10.70;86.80;;;;;;4940239;28;20586;-83
2023/10/09 02:59:51;;;;;;;1.35;0.52;;;10.70;86.60;;;;;;4946835;28;20050;-83
2023/10/09 03:02:19;;;;;;;2.15;0.50;;;10.70;86.20;;;;;;4946932;28;20050;-84
2023/10/09 03:04:46;;;;;;;3.35;0.50;;;10.70;85.90;;;;;;4928385;28;20050;-84
2023/10/09 03:07:14;;;;;;;4.80;0.63;;;10.70;85.30;;;;;;4958676;28;20510;-83
2023/10/09 03:09:41;;;;;;;4.60;0.50;;;10.70;84.80;;;;;;4930506;28;20058;-84
2023/10/09 03:12:12;;;;;;;2.25;0.50;;;10.80;84.60;;;;;;4960200;28;22104;-82
2023/10/09 03:14:41;;;;;;;2.60;0.50;;;10.70;83.80;;;;;;4931120;28;20164;-84
2023/10/09 03:17:11;;;;;;;1.30;0.63;;;10.80;83.40;;;;;;4925010;28;20050;-83
2023/10/09 03:19:43;;;;;;;1.75;0.35;;;10.80;83.20;;;;;;4939863;28;20061;-83
2023/10/09 03:22:11;;;;;;;1.67;0.80;;;10.80;83.00;;;;;;4934814;28;20423;-80
2023/10/09 03:24:44;;;;;;;3.47;0.57;;;10.80;82.60;;;;;;4921766;28;20050;-84
2023/10/09 03:27:18;;;;;;;6.20;1.33;;;10.80;82.50;;;;;;4957978;28;20046;-84
2023/10/09 03:29:49;;;;;;;2.28;0.43;;;10.80;82.60;;;;;;4928987;28;20062;-82
2023/10/09 03:32:19;;;;;;;4.68;0.30;;;10.80;82.50;;;;;;4966262;28;20091;-83
2023/10/09 03:34:49;;;;;;;4.38;0.60;;;10.80;83.10;;;;;;4941355;28;21020;-83
2023/10/09 03:37:33;;;;;;;4.70;0.60;;;10.80;82.60;;;;;;4972053;28;20071;-83
2023/10/09 03:40:03;;;;;;;6.18;0.68;;;10.80;83.00;;;;;;4935882;28;20093;-82
2023/10/09 03:42:30;;;;;;;3.38;0.68;;;10.80;83.40;;;;;;4963249;28;20046;-84
2023/10/09 03:44:57;;;;;;;2.22;0.40;;;10.80;82.60;;;;;;4932687;28;20105;-83
2023/10/09 03:47:27;;;;;;;1.38;0.20;;;10.80;82.70;;;;;;4931363;28;20046;-83
2023/10/09 03:49:55;;;;;;;1.83;0.50;;;10.90;82.80;;;;;;4937244;28;20054;-81
2023/10/09 03:52:27;;;;;;;1.58;0.40;;;10.90;83.50;;;;;;4955432;28;20066;-79
2023/10/09 03:54:54;;;;;;;2.45;0.40;;;10.90;83.90;;;;;;4937118;28;20672;-83
2023/10/09 03:57:23;;;;;;;3.47;0.40;;;10.90;84.20;;;;;;4946251;28;20239;-83
2023/10/09 03:59:51;;;;;;;2.95;0.40;;;10.90;84.70;;;;;;4951960;28;20069;-83
2023/10/09 04:02:21;;;;;;;2.55;0.63;;;10.90;84.70;;;;;;4951570;28;20053;-82
2023/10/09 04:04:51;;;;;;;1.15;0.30;;;10.90;84.20;;;;;;4934444;28;20057;-84
2023/10/09 04:07:19;;;;;;;1.05;0.20;;;10.90;83.80;;;;;;4923431;28;21873;-81
2023/10/09 04:09:51;;;;;;;2.63;0.40;;;10.90;83.90;;;;;;4938857;28;20132;-82
2023/10/09 04:12:21;;;;;;;3.00;0.50;;;10.90;83.80;;;;;;4947265;28;20145;-83
2023/10/09 04:14:54;;;;;;;2.25;0.45;;;10.80;83.90;;;;;;4952764;28;20050;-80
2023/10/09 04:22:50;;;;;;;3.30;0.60;;;10.90;83.40;;;;;;4940126;28;20046;-82
2023/10/09 04:25:25;;;;;;;2.35;0.20;;;10.90;83.00;;;;;;4966257;28;20054;-83
2023/10/09 04:28:08;;;;;;;1.40;0.40;;;10.90;83.10;;;;;;4933212;28;20287;-81
2023/10/09 04:30:42;;;;;;;2.03;0.40;;;11.00;83.60;;;;;;4954937;28;20050;-84
2023/10/09 04:33:59;;;;;;;2.10;0.30;;;10.90;82.90;;;;;;4950211;28;20050;-83
2023/10/09 04:42:19;;;;;;;4.73;0.70;;;11.00;82.50;;;;;;4955988;28;20757;-84
2023/10/09 04:44:24;;;;;;;3.85;1.20;;;11.00;82.00;;;;;;4935293;28;20358;-82
2023/10/09 05:03:05;;;;;;;5.07;1.77;;;10.90;81.40;;;;;;4941186;28;20053;-81
2023/10/09 05:16:28;;;;;;;2.20;0.68;;;11.00;81.70;;;;;;4934695;28;20081;-84
2023/10/09 05:18:56;;;;;;;5.15;0.57;;;11.10;81.50;;;;;;4913200;28;20439;-83
2023/10/09 05:29:59;;;;;;;4.38;0.60;;;11.10;81.70;;;;;;4953278;28;20151;-85
2023/10/09 05:37:32;;;;;;;3.20;0.75;;;11.10;82.20;;;;;;4955022;28;20104;-82
2023/10/09 05:42:44;;;;;;;10.00;0.60;;;11.10;82.20;;;;;;4957206;28;20069;-84
2023/10/09 06:07:13;;;;;;;1.63;0.30;;;11.20;80.20;;;;;;4934817;28;20172;-84
2023/10/09 06:09:49;;;;;;;3.67;0.40;;;11.20;80.30;;;;;;4939887;28;20058;-83
2023/10/09 06:17:51;;;;;;;4.18;1.42;;;11.30;79.60;;;;;;4968456;28;20443;-84
2023/10/09 06:23:16;;;;;;;3.03;0.60;;;11.30;79.50;;;;;;4973809;28;20046;-84
2023/10/09 06:25:51;;;;;;;3.00;0.30;;;11.30;79.10;;;;;;4933791;28;21046;-83
2023/10/09 06:28:32;;;;;;;2.85;0.30;;;11.30;79.40;;;;;;4965261;28;20054;-84
2023/10/09 06:31:27;;;;;;;2.50;0.32;;;11.30;78.40;;;;;;4943563;28;20133;-84
2023/10/09 06:36:33;;;;;;;4.13;0.38;;;11.40;79.90;;;;;;4934074;28;20054;-85
2023/10/09 06:42:08;;;;;;;4.53;0.45;;;11.50;79.60;;;;;;4922153;28;20055;-86
2023/10/09 06:44:52;;;;;;;4.07;0.40;;;11.50;79.30;;;;;;4930571;28;20054;-85
2023/10/09 06:47:23;;;;;;;2.75;0.32;;;11.50;79.40;;;;;;4924335;28;20053;-86
2023/10/09 06:55:37;;;;;;;5.75;0.65;;;11.50;79.10;;;;;;4958995;28;20060;-85
2023/10/09 06:58:15;;;;;;;2.63;0.20;;;11.50;79.10;;;;;;4929039;28;20051;-85
2023/10/09 07:03:32;;;;;;;4.72;0.85;;;11.60;78.70;;;;;;4957887;28;20061;-87
2023/10/09 07:14:32;;;;;;;5.18;0.90;;;11.60;77.70;;;;;;4952338;28;20050;-85
2023/10/09 07:17:04;;;;;;;10.48;0.60;;;11.60;77.50;;;;;;4960092;28;20251;-86
2023/10/09 07:22:15;;;;;;;3.53;0.30;;;11.60;76.70;;;;;;4933474;28;20058;-82
2023/10/09 07:24:43;;;;;;;2.67;0.22;;;11.70;76.80;;;;;;4955183;28;20057;-83
2023/10/09 07:27:14;;;;;;;1.17;0.28;;;11.70;76.30;;;;;;4922032;28;20125;-85
2023/10/09 07:29:47;;;;;;;3.05;0.20;;;11.70;75.90;;;;;;4938997;28;20054;-86
2023/10/09 07:32:21;;;;;;;3.83;0.28;;;11.70;75.90;;;;;;4925208;28;20058;-86
2023/10/09 07:34:58;;;;;;;1.73;0.20;;;11.70;75.20;;;;;;4925175;28;20176;-84
2023/10/09 07:37:35;;;;;;;1.75;0.40;;;11.90;75.90;;;;;;4927822;28;20177;-85
2023/10/09 07:40:07;;;;;;;2.15;0.30;;;11.90;75.00;;;;;;4948914;28;20166;-86
2023/10/09 07:42:44;;;;;;;2.30;0.20;;;11.90;74.60;;;;;;4944761;28;20062;-95
2023/10/09 07:46:29;;;;;;;3.35;0.22;;;11.80;72.70;;;;;;4965504;28;20062;-88
2023/10/09 07:50:40;;;;;;;3.95;0.20;;;11.90;72.30;;;;;;4950071;28;20407;-87
2023/10/09 07:53:25;;;;;;;1.40;0.20;;;11.80;71.60;;;;;;4943609;28;20050;-94
2023/10/09 07:56:06;;;;;;;1.25;0.20;;;11.80;71.00;;;;;;4949982;28;20062;-86
2023/10/09 07:58:45;;;;;;;4.10;0.40;;;11.80;70.60;;;;;;4938606;28;20583;-89
2023/10/09 08:01:22;;;;;;;4.15;1.02;;;12.00;70.30;;;;;;4946280;28;20070;-87
2023/10/09 08:03:57;;;;;;;1.95;0.25;;;12.10;69.40;;;;;;4924434;28;22106;-86
2023/10/09 08:06:42;;;;;;;1.67;0.20;;;12.30;70.00;;;;;;4953654;28;20061;-86
2023/10/09 08:09:46;;;;;;;0.85;0.10;;;12.40;69.80;;;;;;4956061;28;20051;-83
2023/10/09 08:15:20;;;;;;;2.35;0.30;;;12.60;68.80;;;;;;4947311;28;20051;-88
2023/10/09 08:17:59;;;;;;;1.20;0.10;;;12.30;68.60;;;;;;4969151;28;20054;-83
2023/10/09 08:20:36;;;;;;;2.53;0.30;;;12.30;68.80;;;;;;4960601;28;20499;-85
2023/10/09 08:23:05;;;;;;;1.50;0.20;;;12.30;69.60;;;;;;4953334;28;20136;-81
2023/10/09 08:25:32;;;;;;;0.82;0.28;;;12.30;68.00;;;;;;4937192;28;20046;-83
2023/10/09 08:31:02;;;;;;;1.95;0.10;;;12.60;68.90;;;;;;4956736;28;20058;-84
2023/10/09 08:33:41;;;;;;;4.95;0.28;;;12.60;68.60;;;;;;4947338;28;20112;-83
2023/10/09 08:36:14;;;;;;;0.90;0.10;;;12.80;68.20;;;;;;4960826;28;20137;-85
2023/10/09 08:38:42;;;;;;;1.20;0.20;;;12.90;67.30;;;;;;4957805;28;20274;-83
2023/10/09 08:41:17;;;;;;;0.50;0.03;;;12.80;66.60;;;;;;4958142;28;22143;-88
2023/10/09 08:44:04;;;;;;;1.05;0.20;;;13.00;67.30;;;;;;4947042;28;20117;-82
2023/10/09 08:46:33;;;;;;;4.40;0.20;;;13.50;67.90;;;;;;4925123;28;20046;-86
2023/10/09 08:49:05;;;;;;;1.20;0.10;;;13.70;66.20;;;;;;4940052;28;22548;-92
2023/10/09 08:51:35;;;;;;;1.67;0.20;;;13.50;64.80;;;;;;4962666;28;22519;-84
2023/10/09 08:54:04;;;;;;;2.22;0.10;;;13.40;64.70;;;;;;4952343;28;20054;-83
2023/10/09 08:56:31;;;;;;;1.70;0.17;;;13.30;64.60;;;;;;4946227;28;20050;-83
2023/10/09 08:59:01;;;;;;;0.63;0.10;;;13.30;64.00;;;;;;4951484;28;20078;-95
2023/10/09 09:01:32;;;;;;;1.35;0.22;;;13.20;63.30;;;;;;4931223;28;20523;-86
2023/10/09 09:04:02;;;;;;;1.88;0.10;;;13.20;63.70;;;;;;4950559;28;20054;-94
2023/10/09 09:06:41;;;;;;;1.20;0.10;;;13.10;62.50;;;;;;4944381;28;20330;-83
2023/10/09 09:09:15;;;;;;;1.27;0.10;;;13.00;62.70;;;;;;4946319;28;20062;-94
2023/10/09 09:11:49;;;;;;;1.50;0.55;;;13.00;62.70;;;;;;4949782;28;20558;-84
2023/10/09 09:14:21;;;;;;;2.38;0.20;;;13.10;62.70;;;;;;4944270;28;20206;-85
2023/10/09 09:16:49;;;;;;;5.38;0.20;;;13.10;62.70;;;;;;4948286;28;20134;-83
2023/10/09 09:19:19;;;;;;;2.58;0.20;;;13.20;63.00;;;;;;4942888;28;20066;-84
2023/10/09 09:21:54;;;;;;;1.05;0.10;;;13.20;63.00;;;;;;4956964;28;20051;-84
2023/10/09 09:27:00;;;;;;;2.33;0.10;;;13.70;62.00;;;;;;4958512;28;20663;-82
2023/10/09 09:29:37;;;;;;;0.95;0.10;;;13.80;62.10;;;;;;4966465;28;20057;-92
2023/10/09 09:32:16;;;;;;;1.15;0.10;;;13.80;61.80;;;;;;4961991;28;20124;-83
2023/10/09 09:34:49;;;;;;;1.00;0.20;;;13.90;61.60;;;;;;4959895;28;20661;-92
2023/10/09 09:37:28;;;;;;;1.55;0.43;;;14.10;61.60;;;;;;4940939;28;20059;-84
2023/10/09 09:40:00;;;;;;;0.80;0.10;;;14.20;61.20;;;;;;4960977;28;20057;-87
2023/10/09 09:42:31;;;;;;;2.05;0.38;;;14.20;60.50;;;;;;4969638;28;20065;-81
2023/10/09 09:45:04;;;;;;;1.02;0.20;;;14.20;60.30;;;;;;4966635;28;20042;-87
2023/10/09 09:47:35;;;;;;;1.98;0.40;;;14.10;60.30;;;;;;4954382;28;20065;-84
2023/10/09 09:50:24;;;;;;;1.58;0.20;;;14.10;60.30;;;;;;4958403;28;20050;-81
2023/10/09 09:52:54;;;;;;;0.80;0.10;;;14.10;61.00;;;;;;4945452;28;20062;-83
2023/10/09 09:55:30;;;;;;;1.50;0.15;;;14.20;61.80;;;;;;4943475;28;20042;-82
2023/10/09 09:57:58;;;;;;;1.75;0.20;;;14.20;61.40;;;;;;4976651;28;20084;-88
2023/10/09 10:03:14;;;;;;;1.20;0.10;;;14.00;61.40;;;;;;4939317;28;20058;-88
2023/10/09 10:05:46;;;;;;;2.00;0.30;;;14.10;62.10;;;;;;4941026;28;20053;-83
2023/10/09 10:08:21;;;;;;;2.05;0.20;;;14.10;62.40;;;;;;4954963;28;20995;-84
2023/10/09 10:11:13;;;;;;;2.75;0.20;;;14.10;62.10;;;;;;4935490;28;20050;-84
2023/10/09 10:13:43;;;;;;;2.95;0.20;;;14.20;62.40;;;;;;4930097;28;20128;-84
2023/10/09 10:16:21;;;;;;;2.75;0.20;;;14.20;61.30;;;;;;4953841;28;20042;-83
2023/10/09 10:21:52;;;;;;;1.55;0.20;;;14.30;62.40;;;;;;4942928;28;20188;-83
2023/10/09 10:24:28;;;;;;;2.70;0.40;;;14.50;62.70;;;;;;4969207;28;20104;-83
2023/10/09 10:27:26;;;;;;;6.38;0.32;;;14.60;62.10;;;;;;4956000;28;20054;-84
2023/10/09 10:30:18;;;;;;;2.17;0.15;;;14.70;61.80;;;;;;4963849;28;20061;-85
2023/10/09 10:32:51;;;;;;;2.40;0.30;;;14.60;61.50;;;;;;4923554;28;20054;-89
2023/10/09 10:35:32;;;;;;;2.80;0.20;;;14.50;61.80;;;;;;4949831;28;20147;-83
2023/10/09 10:40:45;;;;;;;3.35;0.30;;;14.40;61.40;;;;;;4985698;28;20411;-84
2023/10/09 10:43:32;;;;;;;3.65;0.63;;;14.30;61.50;;;;;;4972756;28;20042;-82
2023/10/09 10:46:04;;;;;;;2.85;0.20;;;14.30;62.20;;;;;;4941362;28;20062;-86
2023/10/09 10:48:38;;;;;;;1.93;0.20;;;14.30;62.30;;;;;;4935932;28;20043;-80
2023/10/09 10:51:06;;;;;;;1.02;0.13;;;14.30;62.10;;;;;;4952274;28;20312;-80
2023/10/09 10:53:47;;;;;;;1.15;0.10;;;14.20;61.90;;;;;;4967658;28;20073;-82
2023/10/09 10:59:11;;;;;;;1.70;0.10;;;14.20;62.40;;;;;;4955017;28;22400;-89
2023/10/09 11:04:38;;;;;;;3.35;0.20;;;14.40;62.80;;;;;;4950175;28;20061;-80
2023/10/09 11:07:12;;;;;;;1.30;0.20;;;14.70;63.20;;;;;;4956465;28;20111;-79
2023/10/09 11:09:58;;;;;;;1.05;0.20;;;14.70;62.80;;;;;;4934443;28;20054;-79
2023/10/09 11:12:39;;;;;;;1.05;0.20;;;14.60;63.20;;;;;;4965304;28;20046;-95
2023/10/09 11:18:07;;;;;;;1.30;0.25;;;15.00;61.60;;;;;;4950488;28;20054;-80
2023/10/09 11:20:36;;;;;;;3.65;0.20;;;15.20;62.10;;;;;;4933446;28;20063;-82
2023/10/09 11:25:52;;;;;;;2.03;0.20;;;15.70;62.30;;;;;;4960862;28;21049;-81
2023/10/09 11:28:42;;;;;;;5.95;0.77;;;15.60;62.00;;;;;;4948771;28;20956;-79
2023/10/09 11:31:15;;;;;;;0.90;0.10;;;15.50;61.50;;;;;;4961890;28;20131;-80
2023/10/09 11:33:51;;;;;;;4.95;0.30;;;15.40;60.80;;;;;;4941931;28;20046;-81
2023/10/09 11:36:55;;;;;;;1.35;0.20;;;15.40;61.80;;;;;;4943242;28;20097;-81
2023/10/09 11:39:31;;;;;;;2.75;0.40;;;15.40;61.60;;;;;;4947298;28;20058;-81
2023/10/09 11:42:06;;;;;;;4.65;0.45;;;15.70;61.10;;;;;;4958840;28;20085;-85
2023/10/09 11:44:44;;;;;;;2.60;0.30;;;15.90;61.50;;;;;;4934711;28;20058;-80
2023/10/09 11:54:59;;;;;;;2.80;0.20;;;15.90;61.00;;;;;;4932448;28;20051;-81
2023/10/09 11:57:33;;;;;;;5.57;0.20;;;15.90;60.50;;;;;;4949566;28;20421;-80
2023/10/09 12:00:10;;;;;;;1.35;0.30;;;15.80;60.90;;;;;;4939884;28;20204;-80
2023/10/09 12:02:43;;;;;;;3.55;0.40;;;15.90;61.60;;;;;;4942581;28;20058;-80
2023/10/09 12:05:16;;;;;;;2.40;0.40;;;15.80;61.50;;;;;;4943271;28;20053;-80
2023/10/09 12:07:57;;;;;;;3.65;0.40;;;15.80;62.40;;;;;;4933429;28;20050;-80
2023/10/09 12:10:25;;;;;;;3.40;0.20;;;15.80;62.60;;;;;;4970367;28;20054;-78
2023/10/09 12:12:53;;;;;;;2.65;0.30;;;15.70;61.50;;;;;;4968286;28;20053;-83
2023/10/09 12:15:21;;;;;;;3.97;0.20;;;15.70;61.30;;;;;;4960660;28;20148;-80
2023/10/09 12:17:49;;;;;;;2.83;0.20;;;15.70;61.70;;;;;;4929565;28;20055;-81
2023/10/09 12:20:50;;;;;;;3.28;0.30;;;15.80;63.10;;;;;;4936723;28;20066;-80
2023/10/09 12:23:14;;;;;;;3.15;0.30;;;15.90;62.90;;;;;;4942187;28;20054;-78
2023/10/09 12:25:44;;;;;;;1.83;0.53;;;15.90;62.80;;;;;;4945192;28;20050;-80
2023/10/09 12:28:12;;;;;;;2.88;0.25;;;15.90;63.80;;;;;;4928310;28;20061;-79
2023/10/09 12:30:41;;;;;;;1.95;0.20;;;15.90;64.70;;;;;;4939547;28;20050;-79
2023/10/09 12:33:09;;;;;;;2.17;0.25;;;15.90;63.70;;;;;;4975193;28;20054;-80
2023/10/09 12:35:38;;;;;;;2.63;0.22;;;15.80;63.40;;;;;;4930477;28;20097;-80
2023/10/09 12:38:09;;;;;;;12.85;5.43;;;15.70;63.90;;;;;;4941381;28;20830;-79
2023/10/09 12:40:39;;;;;;;97.97;55.05;;;15.70;65.30;;;;;;4959766;28;20152;-80
2023/10/09 12:43:15;;;;;;;11.05;4.78;;;15.60;65.60;;;;;;4942894;28;20050;-80
2023/10/09 12:45:42;;;;;;;7.20;2.40;;;15.60;66.90;;;;;;4930746;28;20050;-80
2023/10/09 12:48:10;;;;;;;3.15;0.57;;;15.60;66.60;;;;;;4945849;28;20058;-80
2023/10/09 12:50:44;;;;;;;4.15;1.35;;;15.70;66.20;;;;;;4973394;28;20201;-79
2023/10/09 12:53:17;;;;;;;1.75;0.40;;;15.90;66.70;;;;;;4918917;28;20077;-81
2023/10/09 12:55:45;;;;;;;15.40;6.10;;;16.20;66.90;;;;;;4956503;28;20193;-80
2023/10/09 12:58:15;;;;;;;7.03;3.50;;;16.00;63.90;;;;;;4920621;28;22459;-81
2023/10/09 13:00:44;;;;;;;5.93;1.88;;;16.10;66.70;;;;;;4924706;28;20050;-82
2023/10/09 13:03:17;;;;;;;3.30;0.38;;;16.10;67.30;;;;;;4950350;28;20945;-81
2023/10/09 13:05:56;;;;;;;2.15;0.40;;;16.20;66.40;;;;;;4924506;28;20618;-79
2023/10/09 13:08:36;;;;;;;3.60;0.60;;;16.10;67.30;;;;;;4934021;28;20061;-81
2023/10/09 13:11:12;;;;;;;4.07;0.20;;;16.10;71.70;;;;;;4944267;28;22685;-80
2023/10/09 13:13:41;;;;;;;1.88;0.57;;;16.00;71.40;;;;;;4944481;28;20061;-81
2023/10/09 13:16:20;;;;;;;2.45;0.30;;;16.10;71.60;;;;;;4950499;28;20096;-81
2023/10/09 13:18:50;;;;;;;1.92;0.40;;;16.10;74.10;;;;;;4925496;28;20069;-80
2023/10/09 13:21:26;;;;;;;2.53;0.75;;;15.90;69.30;;;;;;4932773;28;20057;-81
2023/10/09 13:23:57;;;;;;;2.55;0.65;;;16.00;73.20;;;;;;4943050;28;20058;-81
2023/10/09 13:26:30;;;;;;;3.92;0.30;;;15.90;73.50;;;;;;4919645;28;20050;-80
2023/10/09 13:29:02;;;;;;;4.55;0.82;;;15.80;71.10;;;;;;4938633;28;20054;-80
2023/10/09 13:31:33;;;;;;;3.70;0.40;;;15.80;71.10;;;;;;4943933;28;20978;-80
2023/10/09 13:34:03;;;;;;;2.03;0.30;;;15.90;75.30;;;;;;4946332;28;20192;-80
2023/10/09 13:36:38;;;;;;;1.50;0.25;;;15.90;76.40;;;;;;4954453;28;20050;-80
2023/10/09 13:39:24;;;;;;;2.08;0.30;;;15.70;76.10;;;;;;4962122;28;21310;-81
2023/10/09 13:41:58;;;;;;;4.00;0.50;;;15.70;76.50;;;;;;4958225;28;20073;-81
2023/10/09 13:44:31;;;;;;;4.03;0.40;;;15.50;77.10;;;;;;4964910;28;20566;-80
2023/10/09 13:47:08;;;;;;;1.55;0.63;;;15.40;79.00;;;;;;4938592;28;20056;-79
2023/10/09 13:49:40;;;;;;;2.63;0.60;;;15.30;81.70;;;;;;4942206;28;20062;-80
2023/10/09 13:52:09;;;;;;;4.45;0.55;;;15.30;82.70;;;;;;4945156;28;20577;-82
2023/10/09 13:57:05;;;;;;;5.78;0.60;;;15.00;86.80;;;;;;4943915;28;20046;-81
2023/10/09 13:59:35;;;;;;;3.63;0.40;;;14.90;88.50;;;;;;4938665;28;20264;-82
2023/10/09 14:02:09;;;;;;;2.40;0.43;;;14.80;89.20;;;;;;4954502;28;20050;-81
2023/10/09 14:04:37;;;;;;;3.13;0.60;;;14.70;90.50;;;;;;4959017;28;20061;-81
2023/10/09 14:07:08;;;;;;;5.20;0.57;;;14.70;91.50;;;;;;4935586;28;20054;-82
2023/10/09 14:09:38;;;;;;;4.75;1.02;;;14.70;91.50;;;;;;4977859;28;20056;-82
2023/10/09 14:12:07;;;;;;;5.88;2.05;;;14.70;92.40;;;;;;4949502;28;20046;-81
2023/10/09 14:14:37;;;;;;;5.40;1.35;;;14.80;93.70;;;;;;4934133;28;20575;-81
2023/10/09 14:17:13;;;;;;;5.70;1.42;;;14.70;93.80;;;;;;4946627;28;20184;-82
2023/10/09 14:19:46;;;;;;;3.40;1.33;;;14.70;94.30;;;;;;4948917;28;22440;-82
2023/10/09 14:22:18;;;;;;;4.68;1.15;;;14.70;95.70;;;;;;4953972;28;20201;-80
2023/10/09 14:24:47;;;;;;;3.50;1.55;;;14.60;95.00;;;;;;4959942;28;20050;-82
2023/10/09 14:27:18;;;;;;;4.68;1.40;;;14.40;94.80;;;;;;4949406;28;20085;-82
2023/10/09 14:29:49;;;;;;;8.27;2.42;;;14.40;94.90;;;;;;4977132;28;20058;-83
2023/10/09 14:32:16;;;;;;;6.70;1.80;;;14.40;95.90;;;;;;4955007;28;20419;-83
2023/10/09 14:34:51;;;;;;;6.47;2.80;;;14.30;97.40;;;;;;4966221;28;20054;-83
2023/10/09 14:37:19;;;;;;;6.22;1.90;;;14.20;97.60;;;;;;4946606;28;20054;-83
2023/10/09 14:39:49;;;;;;;8.32;2.03;;;14.20;97.70;;;;;;4959448;28;20046;-83
2023/10/09 14:42:17;;;;;;;6.45;2.17;;;14.20;98.00;;;;;;4943073;28;20054;-84
2023/10/09 14:44:45;;;;;;;6.53;2.20;;;14.10;99.10;;;;;;4965406;28;20090;-83
2023/10/09 14:47:14;;;;;;;10.50;2.67;;;14.10;99.90;;;;;;4952578;28;20062;-84
2023/10/09 14:49:46;;;;;;;5.55;2.53;;;14.10;99.90;;;;;;4966138;28;20050;-82
2023/10/09 14:52:20;;;;;;;7.63;3.53;;;14.10;99.90;;;;;;4985045;28;20054;-83
2023/10/09 14:54:47;;;;;;;8.88;3.15;;;14.10;99.90;;;;;;4963819;28;20526;-81
2023/10/09 14:57:15;;;;;;;7.30;2.90;;;14.10;99.90;;;;;;4975905;28;20054;-84
2023/10/09 14:59:45;;;;;;;14.02;3.97;;;14.10;99.90;;;;;;4964354;28;20046;-84
2023/10/09 15:02:14;;;;;;;10.23;3.55;;;14.10;99.90;;;;;;4942354;28;20796;-84
2023/10/09 15:04:41;;;;;;;12.82;4.88;;;14.00;99.90;;;;;;4977143;28;20058;-84
2023/10/09 15:07:09;;;;;;;13.88;5.82;;;13.90;99.90;;;;;;4963439;28;20784;-83
2023/10/09 15:09:39;;;;;;;15.32;6.55;;;13.90;99.90;;;;;;4956214;28;20270;-83
2023/10/09 15:12:07;;;;;;;11.73;5.50;;;13.90;99.90;;;;;;4950779;28;20049;-83
2023/10/09 15:14:37;;;;;;;13.70;5.10;;;13.90;99.90;;;;;;4964617;28;20064;-83
2023/10/09 15:17:06;;;;;;;10.05;4.55;;;13.90;99.90;;;;;;4974452;28;20053;-84
2023/10/09 15:19:34;;;;;;;13.23;4.53;;;13.80;99.90;;;;;;4983370;28;20093;-83
2023/10/09 15:22:01;;;;;;;8.77;3.60;;;13.80;99.90;;;;;;4967935;28;20140;-84
2023/10/09 15:24:29;;;;;;;12.15;3.80;;;13.80;99.90;;;;;;4947491;28;20057;-83
2023/10/09 15:26:57;;;;;;;9.02;3.63;;;13.70;99.90;;;;;;4946379;28;20066;-84
2023/10/09 15:29:30;;;;;;;13.88;4.90;;;13.60;99.90;;;;;;4981178;28;22526;-82
2023/10/09 15:32:04;;;;;;;;;;;13.60;99.90;;;;;;4953100;28;20128;-84
2023/10/09 15:34:36;;;;;;;13.57;5.90;;;13.60;99.90;;;;;;4955343;28;20386;-85
2023/10/09 15:37:07;;;;;;;9.07;3.65;;;13.60;99.90;;;;;;4966581;28;20829;-83
2023/10/09 15:39:35;;;;;;;7.38;2.72;;;13.60;99.90;;;;;;4953060;28;20054;-84
2023/10/09 15:42:06;;;;;;;8.30;3.33;;;13.50;99.90;;;;;;4964015;28;20065;-83
2023/10/09 15:44:36;;;;;;;10.57;3.15;;;13.40;99.90;;;;;;4957935;28;20062;-83
2023/10/09 15:47:08;;;;;;;9.40;4.15;;;13.40;99.90;;;;;;4975134;28;20042;-85
2023/10/09 15:49:41;;;;;;;10.25;5.03;;;13.40;99.90;;;;;;4981654;28;20044;-84
2023/10/09 15:52:08;;;;;;;;;;;13.40;99.90;;;;;;4968371;28;20149;-85
2023/10/09 15:54:36;;;;;;;9.48;4.97;;;13.40;99.90;;;;;;4945079;28;20028;-84
2023/10/09 15:57:05;;;;;;;11.30;5.93;;;13.40;99.90;;;;;;4948300;28;20058;-86
2023/10/09 15:59:39;;;;;;;12.30;6.63;;;13.40;99.90;;;;;;4932415;28;20070;-87
2023/10/09 16:02:06;;;;;;;13.68;5.07;;;13.40;99.90;;;;;;4973108;28;20081;-86
2023/10/09 16:04:34;;;;;;;10.60;4.95;;;13.40;99.90;;;;;;4965287;28;20046;-85
2023/10/09 16:07:05;;;;;;;11.00;4.70;;;13.40;99.90;;;;;;4928938;28;22660;-86
2023/10/09 16:09:37;;;;;;;9.65;5.38;;;13.40;99.90;;;;;;4941852;28;22533;-86
2023/10/09 16:12:06;;;;;;;14.60;6.65;;;13.30;99.90;;;;;;4950006;28;20054;-86
2023/10/09 16:14:35;;;;;;;14.15;7.47;;;13.30;99.90;;;;;;4930843;28;20616;-83
2023/10/09 16:17:03;;;;;;;14.75;6.88;;;13.30;99.90;;;;;;4929714;28;20042;-86
2023/10/09 16:19:36;;;;;;;10.75;6.18;;;13.30;99.90;;;;;;4956788;28;20062;-86